Time;durP1;ratioP1;P1;durP2;ratioP2;P2;SDS_P1;SDS_P2;PMS_P1;PMS_P2;Temp;Humidity;BMP_temperature;BMP_pressure;BME280_temperature;BME280_humidity;BME280_pressure;Samples;Min_cycle;Max_cycle;Signal;HPM_P1;HPM_P2
2023/07/18 03:00:38;;;;;;;2.10;1.60;;;27.10;43.60;;;;;;6065620;23;45027;31
2023/07/18 03:03:03;;;;;;;2.10;1.45;;;27.10;43.60;;;;;;4833891;29;45953;-84
2023/07/18 03:05:32;;;;;;;1.60;1.50;;;27.10;43.70;;;;;;4834598;29;45134;-85
2023/07/18 03:07:58;;;;;;;1.88;1.58;;;27.10;43.60;;;;;;4879015;29;45305;-85
2023/07/18 03:10:27;;;;;;;1.90;1.60;;;27.10;43.60;;;;;;4841481;29;44981;-85
2023/07/18 03:12:53;;;;;;;2.50;1.53;;;27.10;43.60;;;;;;4824177;29;45301;-87
2023/07/18 03:15:20;;;;;;;1.90;1.40;;;27.00;43.60;;;;;;4839522;29;45930;-87
2023/07/18 03:17:45;;;;;;;1.85;1.67;;;27.00;43.60;;;;;;4832444;29;47208;-87
2023/07/18 03:20:18;;;;;;;2.28;1.70;;;27.00;43.60;;;;;;4837187;29;45625;-86
2023/07/18 03:22:48;;;;;;;1.90;1.70;;;27.10;43.60;;;;;;4847385;29;45319;-87
2023/07/18 03:25:14;;;;;;;1.83;1.55;;;27.00;43.50;;;;;;4819775;29;45250;-87
2023/07/18 03:27:39;;;;;;;2.43;1.70;;;27.00;43.60;;;;;;4841856;29;46964;-87
2023/07/18 03:30:11;;;;;;;3.03;1.60;;;27.00;43.60;;;;;;4835527;29;45216;-88
2023/07/18 03:32:38;;;;;;;2.08;1.50;;;27.00;43.50;;;;;;4831967;29;45186;-87
2023/07/18 03:35:06;;;;;;;1.90;1.57;;;27.00;43.50;;;;;;4831964;29;45549;-87
2023/07/18 03:37:31;;;;;;;2.30;1.60;;;27.00;43.50;;;;;;4842663;29;47173;-87
2023/07/18 03:39:57;;;;;;;1.70;1.53;;;27.00;43.50;;;;;;4841873;29;45460;-87
2023/07/18 03:42:22;;;;;;;1.90;1.50;;;27.00;43.50;;;;;;4838076;29;45472;-86
2023/07/18 03:44:48;;;;;;;2.23;1.57;;;27.00;43.50;;;;;;4844238;29;44973;-86
2023/07/18 03:47:13;;;;;;;2.30;1.60;;;27.00;43.50;;;;;;4837036;29;45774;-86
2023/07/18 03:49:39;;;;;;;3.25;2.08;;;27.00;43.50;;;;;;4833252;29;45156;-87
2023/07/18 03:52:05;;;;;;;2.78;1.90;;;27.00;43.50;;;;;;4833902;29;45291;-86
2023/07/18 03:54:32;;;;;;;2.17;1.75;;;27.00;43.50;;;;;;4818144;29;45544;-86
2023/07/18 03:56:57;;;;;;;2.03;1.77;;;27.00;43.50;;;;;;4833205;29;46243;-86
2023/07/18 03:59:23;;;;;;;2.00;1.70;;;27.00;43.50;;;;;;4833301;29;45364;-87
2023/07/18 04:01:49;;;;;;;2.77;1.70;;;27.00;43.50;;;;;;4807909;29;45552;-87
2023/07/18 04:04:15;;;;;;;3.03;2.00;;;27.00;43.50;;;;;;4838567;29;45714;-87
2023/07/18 04:06:43;;;;;;;3.20;2.00;;;27.00;43.40;;;;;;4832185;29;47376;-85
2023/07/18 04:09:09;;;;;;;2.20;1.70;;;27.00;43.50;;;;;;4840088;29;45775;-86
2023/07/18 04:11:35;;;;;;;2.33;1.70;;;27.00;43.40;;;;;;4818174;29;45365;-86
2023/07/18 04:14:01;;;;;;;2.07;1.83;;;27.00;44.00;;;;;;4838592;29;45789;-87
2023/07/18 04:16:26;;;;;;;2.57;1.90;;;27.00;43.40;;;;;;4825621;29;47405;-88
2023/07/18 04:18:52;;;;;;;2.30;1.80;;;27.00;43.40;;;;;;4830576;29;46097;-86
2023/07/18 04:21:18;;;;;;;2.63;1.80;;;27.00;43.40;;;;;;4837465;29;45542;-85
2023/07/18 04:23:43;;;;;;;2.50;1.80;;;27.00;43.40;;;;;;4838606;29;45137;-87
2023/07/18 04:26:09;;;;;;;2.87;2.00;;;27.00;43.40;;;;;;4833125;29;47129;-87
2023/07/18 04:28:36;;;;;;;2.78;1.88;;;27.00;43.40;;;;;;4822681;29;44956;-86
2023/07/18 04:31:02;;;;;;;1.80;1.70;;;27.00;43.40;;;;;;4815001;29;45196;-90
2023/07/18 04:33:27;;;;;;;2.47;1.80;;;27.00;43.40;;;;;;4838861;29;45601;-87
2023/07/18 04:35:53;;;;;;;3.72;1.92;;;27.00;43.40;;;;;;4824513;29;47186;-87
2023/07/18 04:38:19;;;;;;;2.20;1.70;;;27.00;43.40;;;;;;4830277;29;45747;-87
2023/07/18 04:40:44;;;;;;;2.17;1.87;;;27.00;43.40;;;;;;4827362;29;45146;-87
2023/07/18 04:43:10;;;;;;;2.30;1.63;;;27.00;43.40;;;;;;4839176;29;45752;-87
2023/07/18 04:45:44;;;;;;;2.13;1.77;;;27.00;43.40;;;;;;4831535;29;47125;-86
2023/07/18 04:48:13;;;;;;;2.10;1.63;;;27.00;44.00;;;;;;4838323;29;45734;-87
2023/07/18 04:50:42;;;;;;;2.30;1.80;;;27.00;43.40;;;;;;4823755;29;45204;-86
2023/07/18 04:53:08;;;;;;;2.23;1.80;;;26.90;43.30;;;;;;4836009;29;45999;-87
2023/07/18 04:55:34;;;;;;;2.17;1.58;;;26.90;43.30;;;;;;4835424;29;46636;-86
2023/07/18 04:58:02;;;;;;;2.30;1.77;;;27.00;43.40;;;;;;4838077;29;44968;-87
2023/07/18 05:00:29;;;;;;;2.60;1.67;;;27.00;43.40;;;;;;4834255;29;45425;-87
2023/07/18 05:02:54;;;;;;;2.33;1.80;;;26.90;43.30;;;;;;4822644;29;44918;-87
2023/07/18 05:05:20;;;;;;;2.28;1.75;;;26.90;43.30;;;;;;4836683;29;45852;-87
2023/07/18 05:07:47;;;;;;;1.90;1.60;;;27.00;43.40;;;;;;4835272;29;45400;-87
2023/07/18 05:10:15;;;;;;;2.30;1.80;;;26.90;43.30;;;;;;4831241;29;44909;-87
2023/07/18 05:12:41;;;;;;;3.22;1.70;;;26.90;43.40;;;;;;4816528;29;45338;-87
2023/07/18 05:15:07;;;;;;;2.72;1.50;;;26.90;43.30;;;;;;4836739;29;45417;-86
2023/07/18 05:17:33;;;;;;;2.00;1.50;;;26.90;43.30;;;;;;4840536;29;45697;-88
2023/07/18 05:19:59;;;;;;;1.83;1.60;;;26.90;43.30;;;;;;4834193;29;46385;-87
2023/07/18 05:22:25;;;;;;;2.13;1.70;;;26.90;43.40;;;;;;4830883;29;45785;-87
2023/07/18 05:24:50;;;;;;;1.90;1.60;;;26.90;43.40;;;;;;4822510;29;47341;-86
2023/07/18 05:27:16;;;;;;;3.07;1.90;;;26.90;43.40;;;;;;4833572;29;45329;-87
2023/07/18 05:29:42;;;;;;;2.65;1.75;;;26.90;43.40;;;;;;4837774;29;45425;-86
2023/07/18 05:32:07;;;;;;;2.30;1.80;;;26.90;43.40;;;;;;4842754;29;45726;-86
2023/07/18 05:34:33;;;;;;;2.20;1.67;;;26.90;43.40;;;;;;4841286;29;45203;-85
2023/07/18 05:37:00;;;;;;;2.70;1.67;;;26.90;43.40;;;;;;4837775;29;44976;-86
2023/07/18 05:39:27;;;;;;;1.80;1.58;;;26.90;43.40;;;;;;4839947;29;45585;-87
2023/07/18 05:41:54;;;;;;;1.93;1.40;;;26.90;43.40;;;;;;4823332;29;45564;-87
2023/07/18 05:44:19;;;;;;;1.85;1.55;;;26.90;43.40;;;;;;4837214;29;47176;-86
2023/07/18 05:46:45;;;;;;;2.00;1.70;;;26.90;43.40;;;;;;4839025;29;45197;-85
2023/07/18 05:49:11;;;;;;;2.00;1.60;;;26.90;43.40;;;;;;4825414;29;44789;-86
2023/07/18 05:51:36;;;;;;;2.45;1.70;;;26.90;43.40;;;;;;4838723;29;45570;-86
2023/07/18 05:54:04;;;;;;;3.37;2.10;;;26.90;43.40;;;;;;4843729;29;47049;-86
2023/07/18 05:56:30;;;;;;;2.38;1.52;;;26.90;43.40;;;;;;4836452;29;45737;-85
2023/07/18 05:58:55;;;;;;;2.05;1.55;;;26.90;43.40;;;;;;4841333;29;45566;-86
2023/07/18 06:01:21;;;;;;;1.92;1.73;;;26.90;43.40;;;;;;4834277;29;45197;-86
2023/07/18 06:03:47;;;;;;;2.42;1.90;;;26.90;43.40;;;;;;4836773;29;47335;-85
2023/07/18 06:06:13;;;;;;;1.80;1.50;;;26.90;43.40;;;;;;4835081;29;45738;-86
2023/07/18 06:08:39;;;;;;;1.90;1.53;;;26.90;43.40;;;;;;4823946;29;45672;-86
2023/07/18 06:11:04;;;;;;;1.83;1.60;;;26.90;43.40;;;;;;4823123;29;45139;-87
2023/07/18 06:13:30;;;;;;;1.70;1.50;;;26.90;43.40;;;;;;4842767;29;45353;-88
2023/07/18 06:15:55;;;;;;;2.33;1.37;;;26.90;43.50;;;;;;4843365;29;45273;-88
2023/07/18 06:18:21;;;;;;;1.73;1.40;;;26.80;43.40;;;;;;4843120;29;45409;-86
2023/07/18 06:20:46;;;;;;;3.60;1.80;;;26.90;43.40;;;;;;4837184;29;45082;-87
2023/07/18 06:23:12;;;;;;;1.63;1.52;;;26.90;43.40;;;;;;4840252;29;47109;-87
2023/07/18 06:25:38;;;;;;;1.67;1.53;;;26.90;43.50;;;;;;4838830;29;45067;-88
2023/07/18 06:28:04;;;;;;;2.07;1.57;;;26.90;43.40;;;;;;4846179;29;45647;-87
2023/07/18 06:30:30;;;;;;;1.70;1.60;;;26.90;43.40;;;;;;4840234;29;45156;-87
2023/07/18 06:32:56;;;;;;;1.73;1.52;;;26.90;43.40;;;;;;4836396;29;45422;-87
2023/07/18 06:35:21;;;;;;;2.00;1.50;;;26.90;43.40;;;;;;4846012;29;45569;-87
2023/07/18 06:37:47;;;;;;;1.70;1.40;;;26.80;43.30;;;;;;4858359;29;45059;-87
2023/07/18 06:40:12;;;;;;;1.80;1.47;;;26.80;43.30;;;;;;4840684;29;44946;-86
2023/07/18 06:42:39;;;;;;;1.80;1.60;;;26.80;43.30;;;;;;4841460;29;45992;-87
2023/07/18 06:45:05;;;;;;;2.67;1.63;;;26.80;43.30;;;;;;4849753;29;44675;-88
2023/07/18 06:47:30;;;;;;;2.88;1.60;;;26.80;43.30;;;;;;4841488;29;44860;-88
2023/07/18 06:49:56;;;;;;;2.05;1.60;;;26.80;43.30;;;;;;4849734;29;45532;-85
2023/07/18 06:52:22;;;;;;;1.67;1.52;;;26.80;43.30;;;;;;4842088;29;45591;-88
2023/07/18 06:54:47;;;;;;;2.10;1.58;;;26.80;43.40;;;;;;4841490;29;44976;-88
2023/07/18 06:57:15;;;;;;;1.63;1.40;;;26.80;43.30;;;;;;4844834;29;45141;-87
2023/07/18 06:59:41;;;;;;;2.53;1.67;;;26.80;43.30;;;;;;4835869;29;45145;-88
2023/07/18 07:02:10;;;;;;;2.20;1.45;;;26.80;43.30;;;;;;4838119;29;47122;-89
2023/07/18 07:04:36;;;;;;;1.70;1.33;;;26.80;43.30;;;;;;4845443;29;45314;-88
2023/07/18 07:07:06;;;;;;;2.30;1.60;;;26.80;43.30;;;;;;4838001;29;45347;-88
2023/07/18 07:09:31;;;;;;;2.03;1.57;;;26.80;43.30;;;;;;4846713;29;44995;-88
2023/07/18 07:11:57;;;;;;;2.72;1.52;;;26.80;43.40;;;;;;4842621;29;45362;-88
2023/07/18 07:14:23;;;;;;;1.88;1.50;;;26.80;43.30;;;;;;4830152;29;45003;-89
2023/07/18 07:16:48;;;;;;;2.53;1.33;;;26.80;43.30;;;;;;4833855;29;45348;-88
2023/07/18 07:19:14;;;;;;;2.13;1.53;;;26.80;43.30;;;;;;4810157;29;45081;-88
2023/07/18 07:21:39;;;;;;;2.10;1.63;;;26.80;43.30;;;;;;4842712;29;46800;-87
2023/07/18 07:24:05;;;;;;;2.73;1.67;;;26.80;43.30;;;;;;4843830;29;44874;-88
2023/07/18 07:26:31;;;;;;;2.13;1.50;;;26.80;43.30;;;;;;4835912;29;45310;-87
2023/07/18 07:28:57;;;;;;;1.87;1.67;;;26.80;43.30;;;;;;4829470;29;45370;-88
2023/07/18 07:31:22;;;;;;;1.77;1.47;;;26.80;43.30;;;;;;4843018;29;47184;-88
2023/07/18 07:33:48;;;;;;;2.67;1.40;;;26.80;43.30;;;;;;4847249;29;45012;-88
2023/07/18 07:36:14;;;;;;;2.60;1.55;;;26.80;43.30;;;;;;4824052;29;45116;-88
2023/07/18 07:38:40;;;;;;;2.00;1.45;;;26.80;43.30;;;;;;4848510;29;45009;-88
2023/07/18 07:41:06;;;;;;;2.15;1.58;;;26.80;43.30;;;;;;4844694;29;47263;-88
2023/07/18 07:43:32;;;;;;;2.33;1.60;;;26.80;43.30;;;;;;4846879;29;45006;-87
2023/07/18 07:45:57;;;;;;;2.50;1.50;;;26.80;43.30;;;;;;4834813;29;45045;-87
2023/07/18 07:48:24;;;;;;;2.10;1.30;;;26.80;43.30;;;;;;4837752;29;45420;-87
2023/07/18 07:50:49;;;;;;;2.60;1.60;;;26.80;43.30;;;;;;4841815;29;47408;-88
2023/07/18 07:53:15;;;;;;;1.43;1.30;;;26.80;43.30;;;;;;4839834;29;46007;-88
2023/07/18 07:55:40;;;;;;;1.53;1.43;;;26.80;43.30;;;;;;4837079;29;45238;-88
2023/07/18 07:58:06;;;;;;;1.60;1.50;;;26.80;43.30;;;;;;4841292;29;44971;-87
2023/07/18 08:00:32;;;;;;;2.20;1.65;;;26.80;43.30;;;;;;4838885;29;45380;-87
2023/07/18 08:02:57;;;;;;;1.30;1.20;;;26.80;43.30;;;;;;4837709;29;45314;-88
2023/07/18 08:05:23;;;;;;;2.40;1.63;;;26.80;43.30;;;;;;4842496;29;45124;-87
2023/07/18 08:07:48;;;;;;;1.67;1.23;;;26.80;43.30;;;;;;4839755;29;45369;-88
2023/07/18 08:10:17;;;;;;;1.77;1.50;;;26.80;43.30;;;;;;4837843;29;67043;-88
2023/07/18 08:12:42;;;;;;;1.75;1.60;;;26.70;43.20;;;;;;4845643;29;45655;-88
2023/07/18 08:15:08;;;;;;;1.50;1.40;;;26.80;43.30;;;;;;4841002;29;44985;-89
2023/07/18 08:17:34;;;;;;;1.52;1.30;;;26.80;43.30;;;;;;4852080;29;45314;-88
2023/07/18 08:19:59;;;;;;;1.88;1.50;;;26.80;43.30;;;;;;4837658;29;45434;-88
2023/07/18 08:22:25;;;;;;;1.88;1.33;;;26.80;43.30;;;;;;4841646;29;45000;-88
2023/07/18 08:24:50;;;;;;;1.85;1.52;;;26.80;43.30;;;;;;4812463;29;45236;-88
2023/07/18 08:27:16;;;;;;;2.10;1.70;;;26.80;43.30;;;;;;4838001;29;44928;-87
2023/07/18 08:29:43;;;;;;;1.60;1.40;;;26.80;43.30;;;;;;4812713;29;47098;-88
2023/07/18 08:32:08;;;;;;;1.77;1.50;;;26.80;43.30;;;;;;4835249;29;45544;-88
2023/07/18 08:34:37;;;;;;;1.63;1.50;;;26.80;43.30;;;;;;4816223;29;45289;-88
2023/07/18 08:37:02;;;;;;;1.50;1.30;;;26.80;43.30;;;;;;4822587;29;44954;-88
2023/07/18 08:39:28;;;;;;;1.75;1.50;;;26.80;43.30;;;;;;4838689;29;46276;-88
2023/07/18 08:41:54;;;;;;;1.58;1.45;;;26.80;43.30;;;;;;4842952;29;45022;-88
2023/07/18 08:44:19;;;;;;;1.55;1.30;;;26.80;43.30;;;;;;4829430;29;45067;-88
2023/07/18 08:46:45;;;;;;;2.35;1.42;;;26.80;43.30;;;;;;4840852;29;45651;-88
2023/07/18 08:49:14;;;;;;;1.52;1.30;;;26.80;43.30;;;;;;4839162;29;47146;-88
2023/07/18 08:51:43;;;;;;;2.08;1.40;;;26.80;43.30;;;;;;4838862;29;45280;-88
2023/07/18 08:54:09;;;;;;;1.60;1.43;;;26.80;43.30;;;;;;4832345;29;44797;-88
2023/07/18 08:56:35;;;;;;;1.23;1.13;;;26.80;43.30;;;;;;4839157;29;45146;-88
2023/07/18 08:59:01;;;;;;;1.40;1.30;;;26.80;43.30;;;;;;4828570;29;47509;-88
2023/07/18 09:01:26;;;;;;;1.30;1.20;;;26.80;43.30;;;;;;4835176;29;45083;-87
2023/07/18 09:03:52;;;;;;;1.63;1.37;;;26.80;43.30;;;;;;4846606;29;45410;-88
2023/07/18 09:06:18;;;;;;;1.93;1.30;;;26.80;43.30;;;;;;4839677;29;45737;-88
2023/07/18 09:08:44;;;;;;;1.83;1.50;;;26.80;43.30;;;;;;4841173;29;47009;-88
2023/07/18 09:11:12;;;;;;;2.17;1.30;;;26.80;43.30;;;;;;4840800;29;44920;-88
2023/07/18 09:13:38;;;;;;;1.65;1.25;;;26.80;43.30;;;;;;4850597;29;44877;-88
2023/07/18 09:16:24;;;;;;;1.65;1.55;;;26.80;43.30;;;;;;4843067;29;45275;-88
2023/07/18 09:18:50;;;;;;;1.67;1.40;;;26.80;43.30;;;;;;4831767;29;46786;-88
2023/07/18 09:21:15;;;;;;;1.65;1.30;;;26.80;43.30;;;;;;4828629;29;45246;-87
2023/07/18 09:23:41;;;;;;;1.92;1.35;;;26.80;43.30;;;;;;4839116;29;44987;-88
2023/07/18 09:26:12;;;;;;;1.50;1.40;;;26.80;43.30;;;;;;4839803;29;45054;-88
2023/07/18 09:28:38;;;;;;;1.80;1.40;;;26.80;43.30;;;;;;4848639;29;46825;-88
2023/07/18 09:31:25;;;;;;;1.42;1.30;;;26.80;43.30;;;;;;4840292;29;45570;-88
2023/07/18 09:33:52;;;;;;;1.83;1.40;;;26.80;43.30;;;;;;4828952;29;45129;-88
2023/07/18 09:36:18;;;;;;;1.60;1.40;;;26.80;43.30;;;;;;4837885;29;45576;-88
2023/07/18 09:38:45;;;;;;;1.60;1.30;;;26.80;43.40;;;;;;4824950;29;47252;-87
2023/07/18 09:41:10;;;;;;;1.48;1.20;;;26.80;43.30;;;;;;4844153;29;45287;-88
2023/07/18 09:43:36;;;;;;;1.43;1.33;;;26.80;43.40;;;;;;4841751;29;45037;-89
2023/07/18 09:46:01;;;;;;;1.37;1.27;;;26.80;43.30;;;;;;4838882;29;45710;-88
2023/07/18 09:48:27;;;;;;;1.77;1.42;;;26.80;43.30;;;;;;4825489;29;45296;-88
2023/07/18 09:50:52;;;;;;;1.30;1.20;;;26.80;43.30;;;;;;4843381;29;45100;-87
2023/07/18 09:53:18;;;;;;;1.70;1.40;;;26.80;43.30;;;;;;4828189;29;45274;-88
2023/07/18 09:55:44;;;;;;;3.47;1.60;;;26.80;43.30;;;;;;4829546;29;44988;-88
2023/07/18 09:58:10;;;;;;;1.20;1.10;;;26.80;43.40;;;;;;4830591;29;47414;-88
2023/07/18 10:00:37;;;;;;;1.25;1.13;;;26.80;43.30;;;;;;4843124;29;45403;-88
2023/07/18 10:03:03;;;;;;;1.30;1.20;;;26.80;43.40;;;;;;4843428;29;45002;-89
2023/07/18 10:05:29;;;;;;;1.60;1.30;;;26.80;43.30;;;;;;4843996;29;45426;-88
2023/07/18 10:07:54;;;;;;;2.33;1.37;;;26.80;43.40;;;;;;4828338;29;47452;-88
2023/07/18 10:10:20;;;;;;;1.90;1.20;;;26.80;43.40;;;;;;4836867;29;44916;-88
2023/07/18 10:12:54;;;;;;;2.00;1.23;;;26.80;43.30;;;;;;4834045;29;44944;-88
2023/07/18 10:15:20;;;;;;;1.70;1.40;;;26.80;43.40;;;;;;4845840;29;44725;-88
2023/07/18 10:17:47;;;;;;;2.25;1.27;;;26.80;43.40;;;;;;4845544;29;45308;-85
2023/07/18 10:20:23;;;;;;;1.27;1.17;;;26.80;43.40;;;;;;4838775;29;45096;-87
2023/07/18 10:22:59;;;;;;;1.83;1.33;;;26.80;43.40;;;;;;4823283;29;44762;-88
2023/07/18 10:25:29;;;;;;;1.50;1.40;;;26.80;43.40;;;;;;4839906;29;45421;-88
2023/07/18 10:27:55;;;;;;;1.70;1.20;;;26.80;43.30;;;;;;4842821;29;45554;-88
2023/07/18 10:30:21;;;;;;;1.38;1.20;;;26.80;43.40;;;;;;4830405;29;45059;-88
2023/07/18 10:32:53;;;;;;;1.63;1.20;;;26.80;43.40;;;;;;4833035;29;45061;-88
2023/07/18 10:35:20;;;;;;;1.92;1.40;;;26.80;43.40;;;;;;4822058;29;45255;-88
2023/07/18 10:37:50;;;;;;;1.27;1.10;;;26.80;43.40;;;;;;4838018;29;46856;-87
2023/07/18 10:40:36;;;;;;;1.70;1.33;;;26.80;43.40;;;;;;4827076;29;44961;-88
2023/07/18 10:43:04;;;;;;;1.38;1.13;;;26.80;43.40;;;;;;4864758;29;44912;-87
2023/07/18 10:45:35;;;;;;;1.20;1.10;;;26.90;43.40;;;;;;4839762;29;44922;-88
2023/07/18 10:48:00;;;;;;;1.27;1.17;;;26.80;43.40;;;;;;4843341;29;46202;-88
2023/07/18 10:50:29;;;;;;;1.40;1.10;;;26.80;43.40;;;;;;4841432;29;45194;-88
2023/07/18 10:52:55;;;;;;;1.40;1.30;;;26.90;43.40;;;;;;4835941;29;44795;-88
2023/07/18 10:55:20;;;;;;;1.30;1.05;;;26.80;43.40;;;;;;4846369;29;45021;-88
2023/07/18 10:57:46;;;;;;;2.25;1.33;;;26.80;43.40;;;;;;4846448;29;47026;-87
2023/07/18 11:00:15;;;;;;;1.90;1.13;;;26.80;43.40;;;;;;4837041;29;45054;-87
2023/07/18 11:02:41;;;;;;;1.27;1.17;;;26.90;43.50;;;;;;4842093;29;44969;-87
2023/07/18 11:05:16;;;;;;;1.42;1.10;;;26.90;43.40;;;;;;4808935;29;44809;-87
2023/07/18 11:07:51;;;;;;;1.70;1.40;;;26.80;43.40;;;;;;4844753;29;47457;-87
2023/07/18 11:10:16;;;;;;;2.00;1.10;;;26.80;43.40;;;;;;4843371;29;45162;-87
2023/07/18 11:12:42;;;;;;;1.60;1.20;;;26.80;43.40;;;;;;4850325;29;44742;-87
2023/07/18 11:15:09;;;;;;;1.77;1.27;;;26.90;43.40;;;;;;4834869;29;44793;-86
2023/07/18 11:17:35;;;;;;;1.60;1.20;;;26.90;43.40;;;;;;4851193;29;45313;-87
2023/07/18 11:20:01;;;;;;;1.45;1.33;;;26.90;43.40;;;;;;4842207;29;45209;-86
2023/07/18 11:22:27;;;;;;;1.30;1.20;;;26.90;43.40;;;;;;4836388;29;45850;-87
2023/07/18 11:24:53;;;;;;;2.20;1.20;;;26.90;43.50;;;;;;4817395;29;45169;-86
2023/07/18 11:27:21;;;;;;;1.40;1.30;;;26.80;43.40;;;;;;4838660;29;46497;-86
2023/07/18 11:30:09;;;;;;;1.40;1.30;;;26.90;43.50;;;;;;4838766;29;45316;-88
2023/07/18 11:32:42;;;;;;;1.58;1.48;;;26.90;43.40;;;;;;4828584;29;45687;-87
2023/07/18 11:35:09;;;;;;;2.00;1.20;;;26.90;43.40;;;;;;4843694;29;44972;-86
2023/07/18 11:37:36;;;;;;;1.48;1.27;;;26.90;43.50;;;;;;4853564;29;45584;-87
2023/07/18 11:40:02;;;;;;;2.20;1.33;;;26.90;43.50;;;;;;4848971;29;45106;-86
2023/07/18 11:42:50;;;;;;;1.25;1.13;;;26.90;43.40;;;;;;4845912;29;44758;-87
2023/07/18 11:45:19;;;;;;;1.80;1.30;;;26.90;43.40;;;;;;4832019;29;45343;-86
2023/07/18 11:47:46;;;;;;;1.30;1.15;;;26.90;43.50;;;;;;4845385;29;47149;-85
2023/07/18 11:50:12;;;;;;;1.60;1.30;;;26.90;43.40;;;;;;4830027;29;45312;-87
2023/07/18 11:52:39;;;;;;;1.90;1.30;;;26.90;43.50;;;;;;4847883;29;44750;-87
2023/07/18 11:55:05;;;;;;;1.60;1.40;;;26.90;43.40;;;;;;4849721;29;44792;-87
2023/07/18 11:57:31;;;;;;;1.70;1.40;;;26.90;43.40;;;;;;4840979;29;45084;-86
2023/07/18 11:59:58;;;;;;;1.77;1.10;;;26.90;43.40;;;;;;4838117;29;45790;-87
2023/07/18 12:02:24;;;;;;;1.30;1.20;;;26.90;43.50;;;;;;4826027;29;44995;-86
2023/07/18 12:04:49;;;;;;;1.67;1.30;;;26.90;43.40;;;;;;4841705;29;44987;-86
2023/07/18 12:07:15;;;;;;;1.20;1.10;;;26.90;43.50;;;;;;4841377;29;47244;-87
2023/07/18 12:09:40;;;;;;;2.00;1.20;;;26.90;43.40;;;;;;4843954;29;44639;-87
2023/07/18 12:12:06;;;;;;;2.58;1.48;;;26.90;43.40;;;;;;4831772;29;44798;-87
2023/07/18 12:14:32;;;;;;;1.50;1.27;;;26.90;43.40;;;;;;4845964;29;45276;-87
2023/07/18 12:16:58;;;;;;;1.70;1.30;;;26.90;43.50;;;;;;4836900;29;47379;-87
2023/07/18 12:19:24;;;;;;;1.55;1.20;;;26.90;43.50;;;;;;4836220;29;44946;-87
2023/07/18 12:21:49;;;;;;;1.30;1.20;;;26.90;43.50;;;;;;4844128;29;45419;-87
2023/07/18 12:24:15;;;;;;;1.63;1.10;;;26.90;43.50;;;;;;4848639;29;45222;-87
2023/07/18 12:26:40;;;;;;;1.40;1.13;;;26.90;43.50;;;;;;4842550;29;45407;-87
2023/07/18 12:29:06;;;;;;;1.50;1.27;;;26.90;43.50;;;;;;4845167;29;45150;-87
2023/07/18 12:31:33;;;;;;;1.52;1.30;;;26.90;43.50;;;;;;4842688;29;45193;-87
2023/07/18 12:33:58;;;;;;;1.42;1.20;;;26.90;43.50;;;;;;4850577;29;45067;-87
2023/07/18 12:36:24;;;;;;;1.33;1.23;;;26.90;43.40;;;;;;4843325;29;47241;-86
2023/07/18 12:38:49;;;;;;;1.23;1.13;;;26.90;43.50;;;;;;4846891;29;45020;-87
2023/07/18 12:41:15;;;;;;;1.63;1.27;;;26.90;43.50;;;;;;4817207;29;45090;-87
2023/07/18 12:43:40;;;;;;;1.50;1.30;;;26.90;43.50;;;;;;4836003;29;45212;-87
2023/07/18 12:46:06;;;;;;;1.13;1.00;;;26.90;43.50;;;;;;4846955;29;45863;-87
2023/07/18 12:48:31;;;;;;;1.35;1.20;;;26.90;43.50;;;;;;4841493;29;44868;-87
2023/07/18 12:50:57;;;;;;;1.13;1.00;;;26.90;43.50;;;;;;4846337;29;45340;-86
2023/07/18 12:53:23;;;;;;;1.83;1.37;;;26.90;43.50;;;;;;4856558;29;45067;-87
2023/07/18 12:55:48;;;;;;;1.70;1.20;;;26.90;43.50;;;;;;4848604;29;47468;-87
2023/07/18 12:58:14;;;;;;;1.37;1.27;;;26.90;43.40;;;;;;4846698;29;45164;-86
2023/07/18 13:00:39;;;;;;;1.37;1.10;;;26.90;43.50;;;;;;4834408;29;45368;-85
2023/07/18 13:03:05;;;;;;;1.60;1.30;;;26.90;43.50;;;;;;4846432;29;44936;-87
2023/07/18 13:05:31;;;;;;;1.30;1.00;;;26.90;43.50;;;;;;4843619;29;46821;-87
2023/07/18 13:07:56;;;;;;;1.75;1.40;;;26.90;43.50;;;;;;4849770;29;45109;-86
2023/07/18 13:10:22;;;;;;;2.57;1.33;;;26.90;43.40;;;;;;4845969;29;44801;-86
2023/07/18 13:12:47;;;;;;;1.52;1.10;;;26.90;43.50;;;;;;4850534;29;45081;-87
2023/07/18 13:15:13;;;;;;;1.27;1.13;;;26.90;43.50;;;;;;4841343;29;46951;-85
2023/07/18 13:17:40;;;;;;;1.43;1.30;;;26.90;43.50;;;;;;4843535;29;45516;-87
2023/07/18 13:20:06;;;;;;;1.23;1.13;;;26.90;43.50;;;;;;4842645;29;45346;-86
2023/07/18 13:22:31;;;;;;;1.50;1.35;;;26.90;43.50;;;;;;4847834;29;45428;-86
2023/07/18 13:24:57;;;;;;;2.07;1.20;;;26.90;43.50;;;;;;4846687;29;45217;-87
2023/07/18 13:27:22;;;;;;;1.27;1.17;;;26.90;43.50;;;;;;4841388;29;45341;-87
2023/07/18 13:29:48;;;;;;;1.47;1.30;;;26.90;43.50;;;;;;4849652;29;45035;-85
2023/07/18 13:32:14;;;;;;;1.67;1.10;;;26.90;43.50;;;;;;4848460;29;45235;-85
2023/07/18 13:34:40;;;;;;;1.60;1.10;;;26.90;43.50;;;;;;4827946;29;47588;-85
2023/07/18 13:37:05;;;;;;;2.80;1.40;;;26.90;43.50;;;;;;4843663;29;45340;-84
2023/07/18 13:39:31;;;;;;;1.35;1.15;;;26.90;43.50;;;;;;4827162;29;44960;-85
2023/07/18 13:41:57;;;;;;;1.73;1.20;;;26.90;43.50;;;;;;4847000;29;44704;-87
2023/07/18 13:44:22;;;;;;;2.50;1.30;;;26.90;43.50;;;;;;4848947;29;48007;-85
2023/07/18 13:46:48;;;;;;;1.70;1.13;;;26.90;43.50;;;;;;4840834;29;45416;-85
2023/07/18 13:49:14;;;;;;;1.80;1.20;;;26.90;43.50;;;;;;4813483;29;45317;-84
2023/07/18 13:51:39;;;;;;;1.63;1.30;;;26.90;43.50;;;;;;4842629;29;45721;-85
2023/07/18 13:54:05;;;;;;;1.75;1.23;;;26.90;43.50;;;;;;4833095;29;46985;-85
2023/07/18 13:56:30;;;;;;;3.10;1.50;;;26.90;43.50;;;;;;4844080;29;45238;-84
2023/07/18 13:58:56;;;;;;;1.97;1.30;;;26.90;43.50;;;;;;4831632;29;45051;-85
2023/07/18 14:01:21;;;;;;;2.57;1.40;;;26.90;43.50;;;;;;4852731;29;44874;-85
2023/07/18 14:03:47;;;;;;;2.27;1.30;;;27.00;43.60;;;;;;4847517;29;45304;-85
2023/07/18 14:06:13;;;;;;;2.33;1.40;;;27.00;43.60;;;;;;4828122;29;44814;-85
2023/07/18 14:08:38;;;;;;;2.28;1.30;;;26.90;43.50;;;;;;4847504;29;44885;-85
2023/07/18 14:11:04;;;;;;;2.13;1.33;;;26.90;43.50;;;;;;4844897;29;45617;-85
2023/07/18 14:13:30;;;;;;;1.48;1.13;;;27.00;43.60;;;;;;4829901;29;47718;-85
2023/07/18 14:15:56;;;;;;;1.95;1.17;;;27.00;43.60;;;;;;4841561;29;45446;-85
2023/07/18 14:18:21;;;;;;;1.80;1.30;;;26.90;43.50;;;;;;4845127;29;44903;-85
2023/07/18 14:20:47;;;;;;;2.42;1.40;;;27.00;43.60;;;;;;4843642;29;45150;-85
2023/07/18 14:23:12;;;;;;;1.30;1.20;;;26.90;43.50;;;;;;4848658;29;45534;-85
2023/07/18 14:25:38;;;;;;;2.22;1.30;;;26.90;43.50;;;;;;4827299;29;45717;-85
2023/07/18 14:28:03;;;;;;;2.40;1.30;;;27.00;43.60;;;;;;4847721;29;45012;-85
2023/07/18 14:30:29;;;;;;;1.93;1.30;;;27.00;43.60;;;;;;4842203;29;45414;-85
2023/07/18 14:32:54;;;;;;;1.60;1.27;;;27.00;43.60;;;;;;4843558;29;45551;-86
2023/07/18 14:35:20;;;;;;;1.30;1.20;;;26.90;43.50;;;;;;4826262;29;44934;-86
2023/07/18 14:37:46;;;;;;;1.77;1.20;;;27.00;43.60;;;;;;4850353;29;45228;-84
2023/07/18 14:40:11;;;;;;;2.88;1.10;;;27.00;43.60;;;;;;4841245;29;44811;-84
2023/07/18 14:42:37;;;;;;;2.03;1.40;;;27.00;43.60;;;;;;4858066;29;45671;-85
2023/07/18 14:45:03;;;;;;;1.63;1.08;;;27.00;43.60;;;;;;4853759;29;45182;-84
2023/07/18 14:47:29;;;;;;;1.70;1.20;;;27.00;43.60;;;;;;4841874;29;45170;-85
2023/07/18 14:49:56;;;;;;;1.50;1.20;;;27.00;43.60;;;;;;4847109;29;45283;-85
2023/07/18 14:52:22;;;;;;;2.30;1.35;;;27.00;43.60;;;;;;4845563;29;45318;-86
2023/07/18 14:54:47;;;;;;;2.00;1.30;;;26.90;43.50;;;;;;4834069;29;45413;-85
2023/07/18 14:57:13;;;;;;;1.50;1.40;;;27.00;43.60;;;;;;4845193;29;44729;-85
2023/07/18 14:59:39;;;;;;;1.60;1.17;;;27.00;43.60;;;;;;4845216;29;44941;-84
2023/07/18 15:02:05;;;;;;;2.13;1.25;;;27.00;43.60;;;;;;4838674;29;47066;-85
2023/07/18 15:04:30;;;;;;;4.07;1.33;;;27.00;43.60;;;;;;4830313;29;45045;-85
2023/07/18 15:06:56;;;;;;;2.10;1.30;;;27.00;43.60;;;;;;4842508;29;44771;-85
2023/07/18 15:09:24;;;;;;;1.73;1.30;;;27.00;43.60;;;;;;4842118;29;45696;-83
2023/07/18 15:11:52;;;;;;;1.30;1.20;;;27.00;43.60;;;;;;4843761;29;47400;-85
2023/07/18 15:14:18;;;;;;;1.30;1.10;;;27.00;43.60;;;;;;4835864;29;45336;-84
2023/07/18 15:16:43;;;;;;;1.17;1.07;;;27.00;43.60;;;;;;4840409;29;45234;-85
2023/07/18 15:19:09;;;;;;;1.60;1.20;;;27.00;43.60;;;;;;4839993;29;45471;-84
2023/07/18 15:21:34;;;;;;;1.60;1.30;;;27.00;43.60;;;;;;4841305;29;45144;-85
2023/07/18 15:24:00;;;;;;;1.67;1.33;;;27.00;43.60;;;;;;4844731;29;45137;-85
2023/07/18 15:26:25;;;;;;;2.25;1.20;;;27.00;43.60;;;;;;4842598;29;45064;-85
2023/07/18 15:28:51;;;;;;;1.30;1.20;;;27.00;43.60;;;;;;4845083;29;44705;-85
2023/07/18 15:31:17;;;;;;;1.40;1.10;;;27.00;43.60;;;;;;4834297;29;46738;-85
2023/07/18 15:33:43;;;;;;;1.38;1.20;;;27.00;43.60;;;;;;4843656;29;45041;-85
2023/07/18 15:36:09;;;;;;;1.33;1.23;;;26.90;43.60;;;;;;4825306;29;45035;-85
2023/07/18 15:38:35;;;;;;;2.17;1.20;;;27.00;43.60;;;;;;4830713;29;45248;-85
2023/07/18 15:41:00;;;;;;;1.63;1.10;;;27.00;43.60;;;;;;4840908;29;47050;-84
2023/07/18 15:43:26;;;;;;;1.10;1.00;;;27.00;43.60;;;;;;4824923;29;45217;-85